sensor_id;sensor_type;location;lat;lon;timestamp;P1;durP1;ratioP1;P2;durP2;ratioP2
39400;SDS011;54391;50.000;7.360;2023-08-06T00:00:12;2.75;;;1.50;;
39400;SDS011;54391;50.000;7.360;2023-08-06T00:02:41;2.47;;;1.70;;
39400;SDS011;54391;50.000;7.360;2023-08-06T00:05:09;2.53;;;1.77;;
39400;SDS011;54391;50.000;7.360;2023-08-06T00:07:36;1.75;;;1.30;;
39400;SDS011;54391;50.000;7.360;2023-08-06T00:10:03;2.28;;;1.20;;
39400;SDS011;54391;50.000;7.360;2023-08-06T00:12:31;1.92;;;1.38;;
39400;SDS011;54391;50.000;7.360;2023-08-06T00:15:00;1.48;;;1.10;;
39400;SDS011;54391;50.000;7.360;2023-08-06T00:17:27;1.58;;;0.70;;
39400;SDS011;54391;50.000;7.360;2023-08-06T00:19:54;1.42;;;0.70;;
39400;SDS011;54391;50.000;7.360;2023-08-06T00:22:22;1.20;;;0.50;;
39400;SDS011;54391;50.000;7.360;2023-08-06T00:24:49;1.52;;;0.50;;
39400;SDS011;54391;50.000;7.360;2023-08-06T00:27:17;1.27;;;0.57;;
39400;SDS011;54391;50.000;7.360;2023-08-06T00:29:45;1.65;;;0.55;;
39400;SDS011;54391;50.000;7.360;2023-08-06T00:32:14;1.25;;;0.40;;
39400;SDS011;54391;50.000;7.360;2023-08-06T00:34:41;2.83;;;0.60;;
39400;SDS011;54391;50.000;7.360;2023-08-06T00:37:08;1.17;;;0.43;;
39400;SDS011;54391;50.000;7.360;2023-08-06T00:39:35;1.55;;;0.70;;
39400;SDS011;54391;50.000;7.360;2023-08-06T00:42:04;1.25;;;0.40;;
39400;SDS011;54391;50.000;7.360;2023-08-06T00:44:32;1.38;;;0.50;;
39400;SDS011;54391;50.000;7.360;2023-08-06T00:47:00;1.92;;;0.57;;
39400;SDS011;54391;50.000;7.360;2023-08-06T00:49:29;3.58;;;0.73;;
39400;SDS011;54391;50.000;7.360;2023-08-06T00:51:57;1.70;;;0.50;;
39400;SDS011;54391;50.000;7.360;2023-08-06T00:54:24;1.77;;;0.60;;
39400;SDS011;54391;50.000;7.360;2023-08-06T00:56:53;0.93;;;0.30;;
39400;SDS011;54391;50.000;7.360;2023-08-06T00:59:20;1.88;;;0.40;;
39400;SDS011;54391;50.000;7.360;2023-08-06T01:01:47;1.13;;;0.30;;
39400;SDS011;54391;50.000;7.360;2023-08-06T01:04:16;0.60;;;0.50;;
39400;SDS011;54391;50.000;7.360;2023-08-06T01:06:45;1.75;;;0.45;;
39400;SDS011;54391;50.000;7.360;2023-08-06T01:09:18;2.42;;;0.80;;
39400;SDS011;54391;50.000;7.360;2023-08-06T01:11:57;1.70;;;0.70;;
39400;SDS011;54391;50.000;7.360;2023-08-06T01:14:30;1.10;;;0.60;;
39400;SDS011;54391;50.000;7.360;2023-08-06T01:17:04;2.05;;;0.73;;
39400;SDS011;54391;50.000;7.360;2023-08-06T01:19:31;2.10;;;0.90;;
39400;SDS011;54391;50.000;7.360;2023-08-06T01:22:00;1.95;;;1.00;;
39400;SDS011;54391;50.000;7.360;2023-08-06T01:24:27;1.48;;;0.80;;
39400;SDS011;54391;50.000;7.360;2023-08-06T01:26:57;1.20;;;1.00;;
39400;SDS011;54391;50.000;7.360;2023-08-06T01:29:31;2.05;;;0.80;;
39400;SDS011;54391;50.000;7.360;2023-08-06T01:32:03;1.25;;;0.70;;
39400;SDS011;54391;50.000;7.360;2023-08-06T01:34:32;1.63;;;0.90;;
39400;SDS011;54391;50.000;7.360;2023-08-06T01:37:01;1.10;;;0.90;;
39400;SDS011;54391;50.000;7.360;2023-08-06T01:39:33;1.25;;;0.80;;
39400;SDS011;54391;50.000;7.360;2023-08-06T01:42:03;1.63;;;0.90;;
39400;SDS011;54391;50.000;7.360;2023-08-06T01:44:30;1.00;;;0.73;;
39400;SDS011;54391;50.000;7.360;2023-08-06T01:46:59;1.70;;;1.20;;
39400;SDS011;54391;50.000;7.360;2023-08-06T01:49:26;1.80;;;0.90;;
39400;SDS011;54391;50.000;7.360;2023-08-06T01:51:54;1.60;;;0.80;;
39400;SDS011;54391;50.000;7.360;2023-08-06T01:54:23;2.17;;;0.93;;
39400;SDS011;54391;50.000;7.360;2023-08-06T01:56:50;1.50;;;1.00;;
39400;SDS011;54391;50.000;7.360;2023-08-06T01:59:17;2.67;;;1.20;;
39400;SDS011;54391;50.000;7.360;2023-08-06T02:01:45;1.20;;;1.00;;
39400;SDS011;54391;50.000;7.360;2023-08-06T02:04:12;1.15;;;0.88;;
39400;SDS011;54391;50.000;7.360;2023-08-06T02:06:40;1.92;;;1.00;;
39400;SDS011;54391;50.000;7.360;2023-08-06T02:09:07;3.00;;;1.20;;
39400;SDS011;54391;50.000;7.360;2023-08-06T02:11:36;2.42;;;1.20;;
39400;SDS011;54391;50.000;7.360;2023-08-06T02:14:04;2.85;;;1.17;;
39400;SDS011;54391;50.000;7.360;2023-08-06T02:16:31;2.17;;;0.90;;
39400;SDS011;54391;50.000;7.360;2023-08-06T02:18:58;1.88;;;1.08;;
39400;SDS011;54391;50.000;7.360;2023-08-06T02:21:25;1.50;;;1.02;;
39400;SDS011;54391;50.000;7.360;2023-08-06T02:23:53;2.10;;;0.90;;
39400;SDS011;54391;50.000;7.360;2023-08-06T02:26:21;1.65;;;0.90;;
39400;SDS011;54391;50.000;7.360;2023-08-06T02:28:49;2.13;;;1.08;;
39400;SDS011;54391;50.000;7.360;2023-08-06T02:31:17;1.92;;;1.02;;
39400;SDS011;54391;50.000;7.360;2023-08-06T02:33:44;3.10;;;0.80;;
39400;SDS011;54391;50.000;7.360;2023-08-06T02:36:11;2.45;;;1.23;;
39400;SDS011;54391;50.000;7.360;2023-08-06T02:38:38;1.67;;;1.08;;
39400;SDS011;54391;50.000;7.360;2023-08-06T02:41:05;0.98;;;0.75;;
39400;SDS011;54391;50.000;7.360;2023-08-06T02:43:33;1.27;;;0.90;;
39400;SDS011;54391;50.000;7.360;2023-08-06T02:46:02;1.05;;;0.90;;
39400;SDS011;54391;50.000;7.360;2023-08-06T02:48:29;1.98;;;0.70;;
39400;SDS011;54391;50.000;7.360;2023-08-06T02:50:59;2.08;;;0.98;;
39400;SDS011;54391;50.000;7.360;2023-08-06T02:53:29;2.65;;;0.90;;
39400;SDS011;54391;50.000;7.360;2023-08-06T02:55:59;1.10;;;0.70;;
39400;SDS011;54391;50.000;7.360;2023-08-06T02:58:37;0.95;;;0.60;;
39400;SDS011;54391;50.000;7.360;2023-08-06T03:01:15;1.10;;;0.60;;
39400;SDS011;54391;50.000;7.360;2023-08-06T03:03:48;1.60;;;0.70;;
39400;SDS011;54391;50.000;7.360;2023-08-06T03:06:22;1.25;;;0.50;;
39400;SDS011;54391;50.000;7.360;2023-08-06T03:08:52;0.85;;;0.52;;
39400;SDS011;54391;50.000;7.360;2023-08-06T03:11:19;1.02;;;0.63;;
39400;SDS011;54391;50.000;7.360;2023-08-06T03:13:50;0.73;;;0.32;;
39400;SDS011;54391;50.000;7.360;2023-08-06T03:16:19;1.55;;;0.47;;
39400;SDS011;54391;50.000;7.360;2023-08-06T03:18:46;0.68;;;0.25;;
39400;SDS011;54391;50.000;7.360;2023-08-06T03:21:14;1.27;;;0.40;;
39400;SDS011;54391;50.000;7.360;2023-08-06T03:23:41;0.43;;;0.20;;
39400;SDS011;54391;50.000;7.360;2023-08-06T03:26:09;0.50;;;0.20;;
39400;SDS011;54391;50.000;7.360;2023-08-06T03:28:36;1.35;;;0.20;;
39400;SDS011;54391;50.000;7.360;2023-08-06T03:31:04;1.45;;;0.30;;
39400;SDS011;54391;50.000;7.360;2023-08-06T03:33:39;0.55;;;0.10;;
39400;SDS011;54391;50.000;7.360;2023-08-06T03:36:11;0.40;;;0.10;;
39400;SDS011;54391;50.000;7.360;2023-08-06T03:38:38;0.17;;;0.17;;
39400;SDS011;54391;50.000;7.360;2023-08-06T03:41:07;0.13;;;0.10;;
39400;SDS011;54391;50.000;7.360;2023-08-06T03:43:35;0.47;;;0.10;;
39400;SDS011;54391;50.000;7.360;2023-08-06T03:46:05;0.40;;;0.20;;
39400;SDS011;54391;50.000;7.360;2023-08-06T03:48:33;0.73;;;0.10;;
39400;SDS011;54391;50.000;7.360;2023-08-06T03:51:02;0.10;;;0.00;;
39400;SDS011;54391;50.000;7.360;2023-08-06T03:53:29;0.08;;;0.00;;
39400;SDS011;54391;50.000;7.360;2023-08-06T03:55:57;0.65;;;0.10;;
39400;SDS011;54391;50.000;7.360;2023-08-06T03:58:26;0.28;;;0.00;;
39400;SDS011;54391;50.000;7.360;2023-08-06T04:00:57;0.00;;;0.00;;
39400;SDS011;54391;50.000;7.360;2023-08-06T04:03:27;0.08;;;0.00;;
39400;SDS011;54391;50.000;7.360;2023-08-06T04:05:55;0.10;;;0.00;;
39400;SDS011;54391;50.000;7.360;2023-08-06T04:08:23;0.00;;;0.00;;
39400;SDS011;54391;50.000;7.360;2023-08-06T04:10:51;0.10;;;0.00;;
39400;SDS011;54391;50.000;7.360;2023-08-06T04:13:19;0.52;;;0.00;;
39400;SDS011;54391;50.000;7.360;2023-08-06T04:15:46;0.00;;;0.00;;
39400;SDS011;54391;50.000;7.360;2023-08-06T04:18:13;0.00;;;0.00;;
39400;SDS011;54391;50.000;7.360;2023-08-06T04:20:44;0.20;;;0.00;;
39400;SDS011;54391;50.000;7.360;2023-08-06T04:23:11;0.68;;;0.00;;
39400;SDS011;54391;50.000;7.360;2023-08-06T04:25:40;0.52;;;0.03;;
39400;SDS011;54391;50.000;7.360;2023-08-06T04:28:08;0.10;;;0.00;;
39400;SDS011;54391;50.000;7.360;2023-08-06T04:30:36;0.00;;;0.00;;
39400;SDS011;54391;50.000;7.360;2023-08-06T04:33:04;0.00;;;0.00;;
39400;SDS011;54391;50.000;7.360;2023-08-06T04:35:32;0.20;;;0.00;;
39400;SDS011;54391;50.000;7.360;2023-08-06T04:38:00;0.00;;;0.00;;
39400;SDS011;54391;50.000;7.360;2023-08-06T04:40:27;0.00;;;0.00;;
39400;SDS011;54391;50.000;7.360;2023-08-06T04:42:56;0.30;;;0.00;;
39400;SDS011;54391;50.000;7.360;2023-08-06T04:45:23;0.00;;;0.00;;
39400;SDS011;54391;50.000;7.360;2023-08-06T04:47:50;0.90;;;0.00;;
39400;SDS011;54391;50.000;7.360;2023-08-06T04:50:19;0.00;;;0.00;;
39400;SDS011;54391;50.000;7.360;2023-08-06T04:52:47;0.00;;;0.00;;
39400;SDS011;54391;50.000;7.360;2023-08-06T04:55:14;0.00;;;0.00;;
39400;SDS011;54391;50.000;7.360;2023-08-06T04:57:41;0.00;;;0.00;;
39400;SDS011;54391;50.000;7.360;2023-08-06T05:00:10;0.00;;;0.00;;
39400;SDS011;54391;50.000;7.360;2023-08-06T05:02:38;0.00;;;0.00;;
39400;SDS011;54391;50.000;7.360;2023-08-06T05:05:05;0.05;;;0.00;;
39400;SDS011;54391;50.000;7.360;2023-08-06T05:07:32;0.22;;;0.00;;
39400;SDS011;54391;50.000;7.360;2023-08-06T05:10:00;0.00;;;0.00;;
39400;SDS011;54391;50.000;7.360;2023-08-06T05:12:28;0.00;;;0.00;;
39400;SDS011;54391;50.000;7.360;2023-08-06T05:14:55;0.10;;;0.00;;
39400;SDS011;54391;50.000;7.360;2023-08-06T05:17:24;0.10;;;0.00;;
39400;SDS011;54391;50.000;7.360;2023-08-06T05:19:51;0.00;;;0.00;;
39400;SDS011;54391;50.000;7.360;2023-08-06T05:22:18;0.00;;;0.00;;
39400;SDS011;54391;50.000;7.360;2023-08-06T05:24:45;1.05;;;0.10;;
39400;SDS011;54391;50.000;7.360;2023-08-06T05:27:13;0.10;;;0.00;;
39400;SDS011;54391;50.000;7.360;2023-08-06T05:29:40;0.15;;;0.00;;
39400;SDS011;54391;50.000;7.360;2023-08-06T05:32:08;0.50;;;0.10;;
39400;SDS011;54391;50.000;7.360;2023-08-06T05:34:37;0.38;;;0.03;;
39400;SDS011;54391;50.000;7.360;2023-08-06T05:37:04;0.55;;;0.10;;
39400;SDS011;54391;50.000;7.360;2023-08-06T05:39:32;0.10;;;0.10;;
39400;SDS011;54391;50.000;7.360;2023-08-06T05:41:59;0.47;;;0.10;;
39400;SDS011;54391;50.000;7.360;2023-08-06T05:44:26;0.30;;;0.10;;
39400;SDS011;54391;50.000;7.360;2023-08-06T05:46:53;0.05;;;0.05;;
39400;SDS011;54391;50.000;7.360;2023-08-06T05:49:20;0.10;;;0.00;;
39400;SDS011;54391;50.000;7.360;2023-08-06T05:51:49;0.32;;;0.10;;
39400;SDS011;54391;50.000;7.360;2023-08-06T05:54:18;0.35;;;0.10;;
39400;SDS011;54391;50.000;7.360;2023-08-06T05:56:45;0.35;;;0.20;;
39400;SDS011;54391;50.000;7.360;2023-08-06T05:59:12;0.20;;;0.10;;
39400;SDS011;54391;50.000;7.360;2023-08-06T06:01:40;0.15;;;0.03;;
39400;SDS011;54391;50.000;7.360;2023-08-06T06:04:07;0.10;;;0.00;;
39400;SDS011;54391;50.000;7.360;2023-08-06T06:06:37;0.00;;;0.00;;
39400;SDS011;54391;50.000;7.360;2023-08-06T06:09:08;0.30;;;0.15;;
39400;SDS011;54391;50.000;7.360;2023-08-06T06:11:35;0.43;;;0.10;;
39400;SDS011;54391;50.000;7.360;2023-08-06T06:14:02;0.47;;;0.20;;
39400;SDS011;54391;50.000;7.360;2023-08-06T06:16:29;0.20;;;0.00;;
39400;SDS011;54391;50.000;7.360;2023-08-06T06:18:57;0.38;;;0.10;;
39400;SDS011;54391;50.000;7.360;2023-08-06T06:21:24;0.30;;;0.10;;
39400;SDS011;54391;50.000;7.360;2023-08-06T06:23:51;0.08;;;0.00;;
39400;SDS011;54391;50.000;7.360;2023-08-06T06:26:20;0.10;;;0.00;;
39400;SDS011;54391;50.000;7.360;2023-08-06T06:28:47;0.45;;;0.00;;
39400;SDS011;54391;50.000;7.360;2023-08-06T06:31:14;0.32;;;0.10;;
39400;SDS011;54391;50.000;7.360;2023-08-06T06:33:41;0.70;;;0.00;;
39400;SDS011;54391;50.000;7.360;2023-08-06T06:36:08;0.10;;;0.10;;
39400;SDS011;54391;50.000;7.360;2023-08-06T06:38:36;0.00;;;0.00;;
39400;SDS011;54391;50.000;7.360;2023-08-06T06:41:03;0.08;;;0.00;;
39400;SDS011;54391;50.000;7.360;2023-08-06T06:43:32;0.10;;;0.00;;
39400;SDS011;54391;50.000;7.360;2023-08-06T06:46:00;0.52;;;0.00;;
39400;SDS011;54391;50.000;7.360;2023-08-06T06:48:27;0.13;;;0.10;;
39400;SDS011;54391;50.000;7.360;2023-08-06T06:50:55;0.10;;;0.03;;
39400;SDS011;54391;50.000;7.360;2023-08-06T06:53:22;0.20;;;0.10;;
39400;SDS011;54391;50.000;7.360;2023-08-06T06:55:52;1.33;;;0.10;;
39400;SDS011;54391;50.000;7.360;2023-08-06T06:58:20;0.13;;;0.10;;
39400;SDS011;54391;50.000;7.360;2023-08-06T07:00:48;0.63;;;0.10;;
39400;SDS011;54391;50.000;7.360;2023-08-06T07:03:16;0.20;;;0.10;;
39400;SDS011;54391;50.000;7.360;2023-08-06T07:05:43;0.25;;;0.10;;
39400;SDS011;54391;50.000;7.360;2023-08-06T07:08:11;0.22;;;0.20;;
39400;SDS011;54391;50.000;7.360;2023-08-06T07:10:38;0.50;;;0.20;;
39400;SDS011;54391;50.000;7.360;2023-08-06T07:13:07;0.20;;;0.10;;
39400;SDS011;54391;50.000;7.360;2023-08-06T07:15:34;0.10;;;0.10;;
39400;SDS011;54391;50.000;7.360;2023-08-06T07:18:02;0.30;;;0.17;;
39400;SDS011;54391;50.000;7.360;2023-08-06T07:20:30;0.40;;;0.10;;
39400;SDS011;54391;50.000;7.360;2023-08-06T07:22:58;0.10;;;0.10;;
39400;SDS011;54391;50.000;7.360;2023-08-06T07:25:25;0.32;;;0.20;;
39400;SDS011;54391;50.000;7.360;2023-08-06T07:27:53;1.30;;;0.10;;
39400;SDS011;54391;50.000;7.360;2023-08-06T07:30:22;0.20;;;0.10;;
39400;SDS011;54391;50.000;7.360;2023-08-06T07:32:49;0.20;;;0.10;;
39400;SDS011;54391;50.000;7.360;2023-08-06T07:35:17;0.10;;;0.00;;
39400;SDS011;54391;50.000;7.360;2023-08-06T07:37:45;0.20;;;0.10;;
39400;SDS011;54391;50.000;7.360;2023-08-06T07:40:12;0.47;;;0.10;;
39400;SDS011;54391;50.000;7.360;2023-08-06T07:42:40;0.00;;;0.00;;
39400;SDS011;54391;50.000;7.360;2023-08-06T07:45:07;0.00;;;0.00;;
39400;SDS011;54391;50.000;7.360;2023-08-06T07:47:36;0.03;;;0.00;;
39400;SDS011;54391;50.000;7.360;2023-08-06T07:50:03;0.10;;;0.10;;
39400;SDS011;54391;50.000;7.360;2023-08-06T07:52:32;0.00;;;0.00;;
39400;SDS011;54391;50.000;7.360;2023-08-06T07:54:59;0.10;;;0.00;;
39400;SDS011;54391;50.000;7.360;2023-08-06T07:57:30;0.10;;;0.00;;
39400;SDS011;54391;50.000;7.360;2023-08-06T07:59:57;0.00;;;0.00;;
39400;SDS011;54391;50.000;7.360;2023-08-06T08:02:24;0.10;;;0.10;;
39400;SDS011;54391;50.000;7.360;2023-08-06T08:04:51;0.10;;;0.00;;
39400;SDS011;54391;50.000;7.360;2023-08-06T08:07:19;0.10;;;0.10;;
39400;SDS011;54391;50.000;7.360;2023-08-06T08:09:48;0.10;;;0.05;;
39400;SDS011;54391;50.000;7.360;2023-08-06T08:12:15;0.90;;;0.10;;
39400;SDS011;54391;50.000;7.360;2023-08-06T08:14:42;0.35;;;0.00;;
39400;SDS011;54391;50.000;7.360;2023-08-06T08:17:10;0.10;;;0.03;;
39400;SDS011;54391;50.000;7.360;2023-08-06T08:19:38;0.10;;;0.10;;
39400;SDS011;54391;50.000;7.360;2023-08-06T08:22:06;0.00;;;0.00;;
39400;SDS011;54391;50.000;7.360;2023-08-06T08:24:33;0.00;;;0.00;;
39400;SDS011;54391;50.000;7.360;2023-08-06T08:27:02;0.75;;;0.10;;
39400;SDS011;54391;50.000;7.360;2023-08-06T08:29:31;0.10;;;0.00;;
39400;SDS011;54391;50.000;7.360;2023-08-06T08:31:58;0.32;;;0.10;;
39400;SDS011;54391;50.000;7.360;2023-08-06T08:34:25;0.00;;;0.00;;
39400;SDS011;54391;50.000;7.360;2023-08-06T08:36:52;0.05;;;0.00;;
39400;SDS011;54391;50.000;7.360;2023-08-06T08:39:20;0.45;;;0.00;;
39400;SDS011;54391;50.000;7.360;2023-08-06T08:41:47;0.00;;;0.00;;
39400;SDS011;54391;50.000;7.360;2023-08-06T08:44:15;0.00;;;0.00;;
39400;SDS011;54391;50.000;7.360;2023-08-06T08:46:44;0.00;;;0.00;;
39400;SDS011;54391;50.000;7.360;2023-08-06T08:49:13;0.10;;;0.10;;
39400;SDS011;54391;50.000;7.360;2023-08-06T08:51:40;0.57;;;0.20;;
39400;SDS011;54391;50.000;7.360;2023-08-06T08:54:07;0.08;;;0.00;;
39400;SDS011;54391;50.000;7.360;2023-08-06T08:56:37;0.10;;;0.10;;
39400;SDS011;54391;50.000;7.360;2023-08-06T08:59:05;0.10;;;0.10;;
39400;SDS011;54391;50.000;7.360;2023-08-06T09:01:33;0.10;;;0.10;;
39400;SDS011;54391;50.000;7.360;2023-08-06T09:04:01;0.10;;;0.00;;
39400;SDS011;54391;50.000;7.360;2023-08-06T09:06:31;0.10;;;0.10;;
39400;SDS011;54391;50.000;7.360;2023-08-06T09:09:06;0.05;;;0.05;;
39400;SDS011;54391;50.000;7.360;2023-08-06T09:11:36;0.10;;;0.00;;
39400;SDS011;54391;50.000;7.360;2023-08-06T09:14:10;0.10;;;0.00;;
39400;SDS011;54391;50.000;7.360;2023-08-06T09:16:39;0.00;;;0.00;;
39400;SDS011;54391;50.000;7.360;2023-08-06T09:19:07;0.00;;;0.00;;
39400;SDS011;54391;50.000;7.360;2023-08-06T09:21:36;0.00;;;0.00;;
39400;SDS011;54391;50.000;7.360;2023-08-06T09:24:07;0.17;;;0.00;;
39400;SDS011;54391;50.000;7.360;2023-08-06T09:26:36;0.00;;;0.00;;
39400;SDS011;54391;50.000;7.360;2023-08-06T09:29:04;0.28;;;0.00;;
39400;SDS011;54391;50.000;7.360;2023-08-06T09:31:33;0.47;;;0.00;;
39400;SDS011;54391;50.000;7.360;2023-08-06T09:34:11;0.00;;;0.00;;
39400;SDS011;54391;50.000;7.360;2023-08-06T09:36:42;0.00;;;0.00;;
39400;SDS011;54391;50.000;7.360;2023-08-06T09:39:13;0.00;;;0.00;;
39400;SDS011;54391;50.000;7.360;2023-08-06T09:41:40;0.43;;;0.20;;
39400;SDS011;54391;50.000;7.360;2023-08-06T09:44:14;0.00;;;0.00;;
39400;SDS011;54391;50.000;7.360;2023-08-06T09:46:46;0.47;;;0.47;;
39400;SDS011;54391;50.000;7.360;2023-08-06T09:49:15;0.30;;;0.10;;
39400;SDS011;54391;50.000;7.360;2023-08-06T09:51:44;0.00;;;0.00;;
39400;SDS011;54391;50.000;7.360;2023-08-06T09:54:12;0.10;;;0.00;;
39400;SDS011;54391;50.000;7.360;2023-08-06T09:56:40;0.20;;;0.00;;
39400;SDS011;54391;50.000;7.360;2023-08-06T09:59:09;0.38;;;0.00;;
39400;SDS011;54391;50.000;7.360;2023-08-06T10:01:37;0.00;;;0.00;;
39400;SDS011;54391;50.000;7.360;2023-08-06T10:04:05;0.00;;;0.00;;
39400;SDS011;54391;50.000;7.360;2023-08-06T10:06:35;0.00;;;0.00;;
39400;SDS011;54391;50.000;7.360;2023-08-06T10:09:02;0.32;;;0.00;;
39400;SDS011;54391;50.000;7.360;2023-08-06T10:11:30;0.00;;;0.00;;
39400;SDS011;54391;50.000;7.360;2023-08-06T10:13:58;0.10;;;0.00;;
39400;SDS011;54391;50.000;7.360;2023-08-06T10:16:30;0.00;;;0.00;;
39400;SDS011;54391;50.000;7.360;2023-08-06T10:18:58;0.20;;;0.00;;
39400;SDS011;54391;50.000;7.360;2023-08-06T10:21:27;0.00;;;0.00;;
39400;SDS011;54391;50.000;7.360;2023-08-06T10:23:57;0.10;;;0.08;;
39400;SDS011;54391;50.000;7.360;2023-08-06T10:26:25;0.10;;;0.10;;
39400;SDS011;54391;50.000;7.360;2023-08-06T10:28:53;0.20;;;0.10;;
39400;SDS011;54391;50.000;7.360;2023-08-06T10:34:25;0.20;;;0.10;;
39400;SDS011;54391;50.000;7.360;2023-08-06T10:37:15;0.28;;;0.10;;
39400;SDS011;54391;50.000;7.360;2023-08-06T10:39:49;0.20;;;0.10;;
39400;SDS011;54391;50.000;7.360;2023-08-06T10:42:20;0.40;;;0.10;;
39400;SDS011;54391;50.000;7.360;2023-08-06T10:47:44;1.27;;;0.20;;
39400;SDS011;54391;50.000;7.360;2023-08-06T10:50:13;0.38;;;0.20;;
39400;SDS011;54391;50.000;7.360;2023-08-06T10:52:42;0.30;;;0.20;;
39400;SDS011;54391;50.000;7.360;2023-08-06T10:55:11;0.40;;;0.10;;
39400;SDS011;54391;50.000;7.360;2023-08-06T10:57:38;0.17;;;0.10;;
39400;SDS011;54391;50.000;7.360;2023-08-06T11:00:06;0.82;;;0.20;;
39400;SDS011;54391;50.000;7.360;2023-08-06T11:02:34;0.30;;;0.20;;
39400;SDS011;54391;50.000;7.360;2023-08-06T11:05:06;0.52;;;0.17;;
39400;SDS011;54391;50.000;7.360;2023-08-06T11:07:33;0.30;;;0.20;;
39400;SDS011;54391;50.000;7.360;2023-08-06T11:10:01;0.75;;;0.38;;
39400;SDS011;54391;50.000;7.360;2023-08-06T11:12:31;0.55;;;0.20;;
39400;SDS011;54391;50.000;7.360;2023-08-06T11:14:58;0.40;;;0.20;;
39400;SDS011;54391;50.000;7.360;2023-08-06T11:17:27;0.47;;;0.20;;
39400;SDS011;54391;50.000;7.360;2023-08-06T11:19:55;0.30;;;0.20;;
39400;SDS011;54391;50.000;7.360;2023-08-06T11:22:25;0.63;;;0.30;;
39400;SDS011;54391;50.000;7.360;2023-08-06T11:24:53;0.30;;;0.20;;
39400;SDS011;54391;50.000;7.360;2023-08-06T11:27:22;0.60;;;0.30;;
39400;SDS011;54391;50.000;7.360;2023-08-06T11:29:50;0.30;;;0.10;;
39400;SDS011;54391;50.000;7.360;2023-08-06T11:32:18;0.65;;;0.30;;
39400;SDS011;54391;50.000;7.360;2023-08-06T11:34:46;0.40;;;0.20;;
39400;SDS011;54391;50.000;7.360;2023-08-06T11:37:13;0.60;;;0.20;;
39400;SDS011;54391;50.000;7.360;2023-08-06T11:39:44;1.45;;;0.30;;
39400;SDS011;54391;50.000;7.360;2023-08-06T11:42:14;0.20;;;0.20;;
39400;SDS011;54391;50.000;7.360;2023-08-06T11:44:41;1.50;;;0.43;;
39400;SDS011;54391;50.000;7.360;2023-08-06T11:47:13;0.95;;;0.20;;
39400;SDS011;54391;50.000;7.360;2023-08-06T11:49:42;0.90;;;0.40;;
39400;SDS011;54391;50.000;7.360;2023-08-06T11:52:13;0.60;;;0.20;;
39400;SDS011;54391;50.000;7.360;2023-08-06T11:54:44;1.00;;;0.30;;
39400;SDS011;54391;50.000;7.360;2023-08-06T11:57:11;0.60;;;0.30;;
39400;SDS011;54391;50.000;7.360;2023-08-06T11:59:39;1.55;;;0.25;;
39400;SDS011;54391;50.000;7.360;2023-08-06T12:02:08;0.38;;;0.20;;
39400;SDS011;54391;50.000;7.360;2023-08-06T12:05:02;0.55;;;0.20;;
39400;SDS011;54391;50.000;7.360;2023-08-06T12:07:31;1.10;;;0.30;;
39400;SDS011;54391;50.000;7.360;2023-08-06T12:09:59;0.60;;;0.17;;
39400;SDS011;54391;50.000;7.360;2023-08-06T12:12:26;0.45;;;0.10;;
39400;SDS011;54391;50.000;7.360;2023-08-06T12:14:54;0.65;;;0.30;;
39400;SDS011;54391;50.000;7.360;2023-08-06T12:17:22;0.35;;;0.20;;
39400;SDS011;54391;50.000;7.360;2023-08-06T12:19:49;0.90;;;0.25;;
39400;SDS011;54391;50.000;7.360;2023-08-06T12:22:18;0.40;;;0.22;;
39400;SDS011;54391;50.000;7.360;2023-08-06T12:24:46;0.82;;;0.30;;
39400;SDS011;54391;50.000;7.360;2023-08-06T12:27:13;0.88;;;0.35;;
39400;SDS011;54391;50.000;7.360;2023-08-06T12:29:41;0.80;;;0.20;;
39400;SDS011;54391;50.000;7.360;2023-08-06T12:32:09;0.70;;;0.20;;
39400;SDS011;54391;50.000;7.360;2023-08-06T12:34:37;0.80;;;0.20;;
39400;SDS011;54391;50.000;7.360;2023-08-06T12:37:05;0.73;;;0.20;;
39400;SDS011;54391;50.000;7.360;2023-08-06T12:39:35;1.20;;;0.35;;
39400;SDS011;54391;50.000;7.360;2023-08-06T12:42:02;1.17;;;0.25;;
39400;SDS011;54391;50.000;7.360;2023-08-06T12:44:31;1.10;;;0.20;;
39400;SDS011;54391;50.000;7.360;2023-08-06T12:46:58;0.35;;;0.10;;
39400;SDS011;54391;50.000;7.360;2023-08-06T12:49:26;0.32;;;0.15;;
39400;SDS011;54391;50.000;7.360;2023-08-06T12:51:54;0.43;;;0.20;;
39400;SDS011;54391;50.000;7.360;2023-08-06T12:54:22;0.13;;;0.10;;
39400;SDS011;54391;50.000;7.360;2023-08-06T12:56:51;0.43;;;0.10;;
39400;SDS011;54391;50.000;7.360;2023-08-06T12:59:18;0.10;;;0.10;;
39400;SDS011;54391;50.000;7.360;2023-08-06T13:01:46;0.30;;;0.10;;
39400;SDS011;54391;50.000;7.360;2023-08-06T13:04:13;0.25;;;0.10;;
39400;SDS011;54391;50.000;7.360;2023-08-06T13:06:40;0.43;;;0.10;;
39400;SDS011;54391;50.000;7.360;2023-08-06T13:09:08;1.17;;;0.10;;
39400;SDS011;54391;50.000;7.360;2023-08-06T13:11:35;0.40;;;0.13;;
39400;SDS011;54391;50.000;7.360;2023-08-06T13:14:08;0.30;;;0.08;;
39400;SDS011;54391;50.000;7.360;2023-08-06T13:16:37;0.13;;;0.10;;
39400;SDS011;54391;50.000;7.360;2023-08-06T13:19:05;0.38;;;0.10;;
39400;SDS011;54391;50.000;7.360;2023-08-06T13:21:33;0.35;;;0.10;;
39400;SDS011;54391;50.000;7.360;2023-08-06T13:24:01;0.30;;;0.10;;
39400;SDS011;54391;50.000;7.360;2023-08-06T13:26:29;0.22;;;0.00;;
39400;SDS011;54391;50.000;7.360;2023-08-06T13:28:57;0.80;;;0.10;;
39400;SDS011;54391;50.000;7.360;2023-08-06T13:31:26;0.10;;;0.08;;
39400;SDS011;54391;50.000;7.360;2023-08-06T13:33:54;0.85;;;0.10;;
39400;SDS011;54391;50.000;7.360;2023-08-06T13:36:23;0.20;;;0.10;;
39400;SDS011;54391;50.000;7.360;2023-08-06T13:38:50;0.05;;;0.00;;
39400;SDS011;54391;50.000;7.360;2023-08-06T13:41:17;0.50;;;0.10;;
39400;SDS011;54391;50.000;7.360;2023-08-06T13:43:45;0.10;;;0.03;;
39400;SDS011;54391;50.000;7.360;2023-08-06T13:46:12;0.17;;;0.00;;
39400;SDS011;54391;50.000;7.360;2023-08-06T13:48:43;0.22;;;0.00;;
39400;SDS011;54391;50.000;7.360;2023-08-06T13:51:11;0.80;;;0.10;;
39400;SDS011;54391;50.000;7.360;2023-08-06T13:53:39;0.68;;;0.00;;
39400;SDS011;54391;50.000;7.360;2023-08-06T13:56:07;0.63;;;0.00;;
39400;SDS011;54391;50.000;7.360;2023-08-06T13:58:36;0.00;;;0.00;;
39400;SDS011;54391;50.000;7.360;2023-08-06T14:01:04;0.10;;;0.00;;
39400;SDS011;54391;50.000;7.360;2023-08-06T14:03:31;0.65;;;0.00;;
39400;SDS011;54391;50.000;7.360;2023-08-06T14:06:00;0.20;;;0.10;;
39400;SDS011;54391;50.000;7.360;2023-08-06T14:08:27;0.05;;;0.00;;
39400;SDS011;54391;50.000;7.360;2023-08-06T14:10:54;0.10;;;0.00;;
39400;SDS011;54391;50.000;7.360;2023-08-06T14:13:21;0.40;;;0.00;;
39400;SDS011;54391;50.000;7.360;2023-08-06T14:15:49;0.00;;;0.00;;
39400;SDS011;54391;50.000;7.360;2023-08-06T14:18:16;0.65;;;0.00;;
39400;SDS011;54391;50.000;7.360;2023-08-06T14:20:44;0.20;;;0.20;;
39400;SDS011;54391;50.000;7.360;2023-08-06T14:23:12;1.75;;;0.30;;
39400;SDS011;54391;50.000;7.360;2023-08-06T14:25:40;0.10;;;0.08;;
39400;SDS011;54391;50.000;7.360;2023-08-06T14:28:07;0.10;;;0.10;;
39400;SDS011;54391;50.000;7.360;2023-08-06T14:30:34;0.20;;;0.03;;
39400;SDS011;54391;50.000;7.360;2023-08-06T14:33:03;0.00;;;0.00;;
39400;SDS011;54391;50.000;7.360;2023-08-06T14:35:30;0.10;;;0.10;;
39400;SDS011;54391;50.000;7.360;2023-08-06T14:37:57;0.10;;;0.10;;
39400;SDS011;54391;50.000;7.360;2023-08-06T14:40:26;0.10;;;0.00;;
39400;SDS011;54391;50.000;7.360;2023-08-06T14:42:54;0.25;;;0.00;;
39400;SDS011;54391;50.000;7.360;2023-08-06T14:45:21;0.08;;;0.00;;
39400;SDS011;54391;50.000;7.360;2023-08-06T14:47:48;0.10;;;0.00;;
39400;SDS011;54391;50.000;7.360;2023-08-06T14:50:15;0.20;;;0.00;;
39400;SDS011;54391;50.000;7.360;2023-08-06T14:52:43;0.10;;;0.00;;
39400;SDS011;54391;50.000;7.360;2023-08-06T14:55:10;0.10;;;0.00;;
39400;SDS011;54391;50.000;7.360;2023-08-06T14:57:38;0.80;;;0.00;;
39400;SDS011;54391;50.000;7.360;2023-08-06T15:00:06;0.10;;;0.00;;